createdAt,value
2023-01-31T00:02:33.337Z,96.24
2023-01-31T00:07:33.279Z,95.83
2023-01-31T00:12:33.172Z,95.83
2023-01-31T00:17:33.124Z,95.62
2023-01-31T00:22:33.039Z,95.93
2023-01-31T00:27:33.014Z,95.72
2023-01-31T00:32:32.917Z,95.62
2023-01-31T00:37:32.938Z,95.51
2023-01-31T00:42:32.809Z,95.31
2023-01-31T00:47:32.746Z,95.20
2023-01-31T00:52:32.716Z,94.68
2023-01-31T00:57:32.651Z,94.79
2023-01-31T01:02:33.234Z,94.48
2023-01-31T01:07:33.029Z,94.58
2023-01-31T01:12:32.451Z,94.48
2023-01-31T01:17:32.712Z,94.37
2023-01-31T01:22:32.343Z,93.96
2023-01-31T01:27:32.712Z,93.85
2023-01-31T01:32:32.274Z,93.65
2023-01-31T01:37:32.523Z,93.65
2023-01-31T01:42:32.115Z,93.85
2023-01-31T01:47:32.555Z,93.96
2023-01-31T01:52:32.134Z,94.06
2023-01-31T01:57:31.957Z,93.85
2023-01-31T02:02:32.222Z,93.75
2023-01-31T02:07:31.820Z,93.75
2023-01-31T02:12:31.752Z,93.65
2023-01-31T02:17:31.702Z,93.75
2023-01-31T02:22:31.643Z,93.85
2023-01-31T02:27:31.592Z,93.75
2023-01-31T02:32:31.594Z,93.33
2023-01-31T02:37:31.472Z,93.44
2023-01-31T02:42:31.401Z,93.65
2023-01-31T02:47:31.350Z,93.85
2023-01-31T02:52:31.282Z,93.85
2023-01-31T02:57:31.221Z,92.93
2023-01-31T03:02:31.208Z,91.99
2023-01-31T03:07:31.103Z,92.41
2023-01-31T03:12:31.053Z,92.72
2023-01-31T03:17:30.999Z,92.82
2023-01-31T03:22:30.922Z,92.24
2023-01-31T03:27:30.871Z,91.41
2023-01-31T03:32:30.817Z,91.31
2023-01-31T03:37:30.748Z,91.41
2023-01-31T03:42:30.681Z,91.76
2023-01-31T03:47:30.639Z,91.86
2023-01-31T03:52:30.565Z,91.97
2023-01-31T03:57:30.511Z,92.07
2023-01-31T04:02:30.481Z,92.28
2023-01-31T04:07:30.380Z,92.38
2023-01-31T04:12:30.316Z,92.49
2023-01-31T04:17:30.251Z,92.59
2023-01-31T04:22:30.181Z,92.49
2023-01-31T04:27:30.134Z,92.49
2023-01-31T04:32:30.075Z,92.49
2023-01-31T04:37:30.019Z,92.80
2023-01-31T04:42:29.945Z,92.59
2023-01-31T04:47:29.881Z,92.80
2023-01-31T04:52:29.829Z,93.01
2023-01-31T04:57:29.742Z,92.69
2023-01-31T05:02:29.728Z,92.80
2023-01-31T05:07:29.643Z,93.12
2023-01-31T05:12:29.572Z,93.12
2023-01-31T05:17:29.551Z,93.01
2023-01-31T05:22:29.463Z,93.12
2023-01-31T05:27:29.407Z,92.18
2023-01-31T05:32:29.330Z,92.28
2023-01-31T05:37:29.287Z,92.07
2023-01-31T05:42:29.209Z,91.86
2023-01-31T05:47:29.150Z,91.97
2023-01-31T05:52:29.087Z,92.18
2023-01-31T05:57:29.024Z,92.63
2023-01-31T06:02:28.998Z,92.94
2023-01-31T06:07:28.917Z,93.16
2023-01-31T06:12:28.863Z,93.37
2023-01-31T06:17:30.373Z,93.53
2023-01-31T06:22:28.725Z,93.47
2023-01-31T06:27:28.656Z,93.57
2023-01-31T06:32:28.754Z,93.78
2023-01-31T06:37:28.522Z,93.68
2023-01-31T06:42:28.462Z,93.78
2023-01-31T06:47:28.403Z,93.78
2023-01-31T06:52:28.341Z,93.84
2023-01-31T06:57:28.281Z,93.88
2023-01-31T07:02:28.212Z,94.09
2023-01-31T07:07:28.162Z,95.34
2023-01-31T07:12:28.088Z,97.10
2023-01-31T07:17:28.033Z,97.72
2023-01-31T07:22:27.971Z,98.08
2023-01-31T07:27:27.912Z,98.14
2023-01-31T07:32:27.842Z,98.03
2023-01-31T07:37:27.802Z,97.77
2023-01-31T07:42:27.721Z,97.83
2023-01-31T07:47:27.683Z,97.62
2023-01-31T07:52:27.609Z,97.72
2023-01-31T07:57:27.541Z,97.31
2023-01-31T08:02:27.480Z,97.10
2023-01-31T08:07:27.423Z,96.37
2023-01-31T08:12:27.362Z,95.50
2023-01-31T08:17:27.333Z,95.09
2023-01-31T08:22:27.220Z,94.98
2023-01-31T08:27:27.163Z,94.67
2023-01-31T08:32:27.171Z,94.53
2023-01-31T08:37:27.042Z,94.21
2023-01-31T08:42:26.979Z,94.63
2023-01-31T08:47:26.919Z,94.53
2023-01-31T08:52:26.865Z,94.42
2023-01-31T08:57:26.789Z,94.94
2023-01-31T09:02:26.774Z,95.77
2023-01-31T09:07:26.669Z,97.12
2023-01-31T09:12:26.609Z,97.02
2023-01-31T09:17:26.549Z,95.46
2023-01-31T09:22:26.507Z,95.15
2023-01-31T09:27:26.428Z,94.63
2023-01-31T09:32:26.379Z,94.06
2023-01-31T09:37:26.327Z,93.02
2023-01-31T09:42:26.273Z,92.61
2023-01-31T09:47:26.198Z,91.74
2023-01-31T09:52:26.138Z,91.16
2023-01-31T09:57:26.096Z,91.22
2023-01-31T10:02:26.029Z,90.60
2023-01-31T10:07:25.967Z,89.98
2023-01-31T10:12:25.917Z,88.94
2023-01-31T10:17:25.918Z,89.42
2023-01-31T10:22:25.826Z,89.31
2023-01-31T10:27:25.759Z,87.87
2023-01-31T10:32:25.698Z,87.55
2023-01-31T10:37:25.639Z,87.87
2023-01-31T10:42:25.595Z,87.76
2023-01-31T10:47:25.530Z,87.97
2023-01-31T10:52:25.479Z,88.69
2023-01-31T10:57:25.421Z,87.76
2023-01-31T11:02:25.435Z,87.55
2023-01-31T11:07:25.314Z,87.35
2023-01-31T11:12:25.258Z,87.76
2023-01-31T11:17:25.199Z,88.18
2023-01-31T11:22:25.148Z,87.76
2023-01-31T11:27:25.093Z,87.97
2023-01-31T11:32:25.042Z,87.55
2023-01-31T11:37:25.025Z,87.35
2023-01-31T11:42:24.933Z,86.83
2023-01-31T11:47:24.872Z,87.55
2023-01-31T11:52:24.825Z,87.35
2023-01-31T11:57:24.759Z,87.14
2023-01-31T12:02:24.799Z,87.35
2023-01-31T12:07:24.651Z,87.62
2023-01-31T12:12:24.608Z,86.47
2023-01-31T12:17:24.542Z,86.47
2023-01-31T12:22:24.498Z,86.62
2023-01-31T12:27:24.430Z,86.62
2023-01-31T12:32:24.404Z,86.93
2023-01-31T12:37:24.326Z,87.14
2023-01-31T12:42:24.287Z,86.72
2023-01-31T12:47:24.211Z,87.24
2023-01-31T12:52:24.153Z,87.04
2023-01-31T12:57:24.101Z,87.04
2023-01-31T13:02:24.092Z,86.83
2023-01-31T13:07:23.980Z,86.93
2023-01-31T13:12:23.932Z,86.62
2023-01-31T13:17:23.874Z,86.58
2023-01-31T13:22:23.827Z,86.58
2023-01-31T13:27:23.754Z,86.68
2023-01-31T13:32:23.728Z,86.79
2023-01-31T13:37:23.642Z,85.96
2023-01-31T13:42:23.590Z,85.34
2023-01-31T13:47:23.542Z,85.75
2023-01-31T13:52:23.499Z,85.34
2023-01-31T13:57:23.432Z,84.51
2023-01-31T14:02:23.386Z,84.20
2023-01-31T14:07:23.330Z,84.51
2023-01-31T14:12:23.271Z,84.20
2023-01-31T14:17:23.206Z,84.61
2023-01-31T14:22:23.160Z,85.03
2023-01-31T14:27:23.094Z,85.13
2023-01-31T14:32:23.040Z,85.65
2023-01-31T14:37:22.980Z,86.27
2023-01-31T14:42:22.936Z,86.72
2023-01-31T14:47:25.908Z,87.04
2023-01-31T14:52:22.825Z,86.83
2023-01-31T14:57:22.753Z,87.04
2023-01-31T15:02:22.812Z,87.24
2023-01-31T15:07:22.660Z,87.66
2023-01-31T15:12:22.633Z,87.14
2023-01-31T15:17:40.485Z,87.04
2023-01-31T15:22:23.470Z,86.72
2023-01-31T15:27:22.421Z,86.83
2023-01-31T15:32:22.359Z,86.83
2023-01-31T15:37:22.307Z,86.83
2023-01-31T15:42:22.260Z,86.31
2023-01-31T15:47:22.207Z,86.31
2023-01-31T15:52:22.163Z,86.62
2023-01-31T15:57:22.079Z,86.21
2023-01-31T16:02:22.048Z,85.79
2023-01-31T16:07:21.968Z,86.21
2023-01-31T16:12:21.907Z,85.79
2023-01-31T16:17:23.093Z,86.41
2023-01-31T16:22:21.838Z,86.21
2023-01-31T16:27:21.731Z,86.41
2023-01-31T16:32:21.684Z,86.72
2023-01-31T16:37:21.660Z,87.35
2023-01-31T16:42:21.560Z,89.00
2023-01-31T16:47:21.491Z,90.29
2023-01-31T16:52:21.441Z,90.29
2023-01-31T16:57:21.387Z,90.19
2023-01-31T17:02:21.354Z,90.50
2023-01-31T17:07:21.270Z,91.22
2023-01-31T17:12:21.227Z,91.33
2023-01-31T17:17:21.997Z,90.81
2023-01-31T17:22:21.102Z,91.02
2023-01-31T17:27:21.094Z,91.53
2023-01-31T17:32:20.983Z,92.57
2023-01-31T17:37:30.324Z,93.13
2023-01-31T17:42:21.876Z,93.96
2023-01-31T17:47:20.809Z,94.58
2023-01-31T17:52:20.789Z,95.41
2023-01-31T17:57:20.697Z,96.60
2023-01-31T18:02:20.629Z,97.64
2023-01-31T18:07:20.562Z,98.26
2023-01-31T18:12:20.509Z,98.30
2023-01-31T18:17:20.441Z,98.82
2023-01-31T18:22:20.381Z,98.82
2023-01-31T18:27:20.323Z,97.89
2023-01-31T18:32:20.368Z,97.74
2023-01-31T18:37:20.295Z,97.74
2023-01-31T18:42:20.138Z,97.43
2023-01-31T18:47:20.078Z,97.53
2023-01-31T18:52:20.038Z,97.22
2023-01-31T18:57:19.952Z,97.33
2023-01-31T19:02:19.928Z,97.49
2023-01-31T19:07:19.842Z,97.85
2023-01-31T19:12:19.784Z,98.05
2023-01-31T19:17:19.703Z,99.30
2023-01-31T19:22:19.653Z,99.99
2023-01-31T19:27:19.600Z,99.99
2023-01-31T19:32:19.550Z,99.99
2023-01-31T19:37:19.461Z,99.99
2023-01-31T19:42:19.402Z,99.99
2023-01-31T19:47:19.330Z,99.99
2023-01-31T19:52:19.283Z,99.99
2023-01-31T19:57:19.209Z,99.99
2023-01-31T20:02:19.245Z,99.99
2023-01-31T20:07:19.089Z,99.99
2023-01-31T20:12:19.034Z,99.99
2023-01-31T20:17:18.962Z,99.99
2023-01-31T20:22:18.909Z,99.99
2023-01-31T20:27:18.873Z,99.99
2023-01-31T20:32:18.806Z,99.99
2023-01-31T20:37:18.721Z,99.99
2023-01-31T20:42:18.659Z,99.99
2023-01-31T20:47:18.599Z,99.99
2023-01-31T20:52:18.540Z,99.99
2023-01-31T20:57:18.470Z,99.99
2023-01-31T21:02:18.421Z,99.99
2023-01-31T21:07:18.350Z,99.99
2023-01-31T21:12:18.289Z,99.99
2023-01-31T21:17:22.499Z,99.99
2023-01-31T21:22:18.181Z,99.99
2023-01-31T21:27:18.169Z,99.99
2023-01-31T21:32:18.061Z,99.99
2023-01-31T21:37:17.993Z,99.99
2023-01-31T21:42:17.955Z,99.99
2023-01-31T21:47:17.874Z,99.99
2023-01-31T21:52:17.819Z,99.99
2023-01-31T21:57:17.749Z,99.99
2023-01-31T22:02:17.723Z,99.99
2023-01-31T22:07:17.634Z,99.99
2023-01-31T22:12:17.577Z,99.99
2023-01-31T22:17:17.540Z,99.99
2023-01-31T22:22:17.470Z,99.99
2023-01-31T22:27:17.399Z,99.99
2023-01-31T22:32:17.343Z,99.99
2023-01-31T22:37:17.281Z,99.99
2023-01-31T22:42:17.208Z,99.99
2023-01-31T22:47:17.158Z,99.99
2023-01-31T22:52:17.099Z,99.99
2023-01-31T22:57:17.041Z,99.99
2023-01-31T23:02:16.981Z,99.99
2023-01-31T23:07:16.919Z,99.99
2023-01-31T23:12:16.873Z,99.99
2023-01-31T23:17:16.798Z,99.99
2023-01-31T23:22:16.750Z,99.99
2023-01-31T23:27:16.688Z,99.99
2023-01-31T23:32:16.638Z,99.99
2023-01-31T23:37:16.571Z,99.99
2023-01-31T23:42:16.525Z,99.99
2023-01-31T23:47:16.463Z,99.99
2023-01-31T23:52:16.402Z,99.99
2023-01-31T23:57:16.341Z,99.99
